Terminal Aerodrome Forecast
Issued by NWS Des Moines, IA

Home | Current Version | Previous Version | Text Only | Print | Product List | Glossary On
Versions: 1 2 3 4 5 6 7 8 9 10 11 12 13 14 15 16 17 18 19 20 21 22 23 24 25 26
000
FTUS43 KDMX 291140
TAFDSM
TAF
KDSM 291140Z 2912/3012 19014G21KT P6SM SCT100 BKN250
     FM291500 24018G27KT P6SM BKN200
     FM291700 31025G34KT P6SM BKN040
     FM300000 31014KT P6SM SKC
     FM300600 24005KT P6SM SKC=

USA.gov is the U.S. government's official web portal to all federal, state and local government web resources and services.